createdAt,value
2023-01-11T00:00:01.180Z,100620
2023-01-11T00:05:00.541Z,100620
2023-01-11T00:10:00.565Z,100600
2023-01-11T00:15:00.538Z,100600
2023-01-11T00:20:00.549Z,100600
2023-01-11T00:25:00.584Z,100600
2023-01-11T00:30:00.492Z,100600
2023-01-11T00:35:00.507Z,100600
2023-01-11T00:40:00.695Z,100600
2023-01-11T00:45:00.519Z,100590
2023-01-11T00:50:00.822Z,100590
2023-01-11T00:55:00.624Z,100590
2023-01-11T01:00:01.164Z,100590
2023-01-11T01:05:00.553Z,100590
2023-01-11T01:10:00.511Z,100580
2023-01-11T01:15:01.423Z,100590
2023-01-11T01:20:00.500Z,100590
2023-01-11T01:25:00.706Z,100600
2023-01-11T01:30:00.521Z,100590
2023-01-11T01:35:00.526Z,100600
2023-01-11T01:40:00.519Z,100590
2023-01-11T01:45:03.792Z,100600
2023-01-11T01:50:05.471Z,100590
2023-01-11T01:55:05.744Z,100580
2023-01-11T02:00:06.356Z,100590
2023-01-11T02:05:00.696Z,100580
2023-01-11T02:10:03.865Z,100580
2023-01-11T02:15:02.224Z,100590
2023-01-11T02:20:07.285Z,100600
2023-01-11T02:25:20.388Z,100600
2023-01-11T02:30:15.502Z,100590
2023-01-11T02:35:13.705Z,100580
2023-01-11T02:40:16.105Z,100580
2023-01-11T02:45:11.455Z,100580
2023-01-11T02:50:08.963Z,100580
2023-01-11T02:55:03.105Z,100580
2023-01-11T03:00:02.511Z,100580
2023-01-11T03:05:00.494Z,100580
2023-01-11T03:10:16.180Z,100590
2023-01-11T03:15:08.810Z,100580
2023-01-11T03:20:08.647Z,100580
2023-01-11T03:25:10.440Z,100590
2023-01-11T03:30:06.061Z,100590
2023-01-11T03:35:12.022Z,100600
2023-01-11T03:40:07.795Z,100590
2023-01-11T03:45:02.470Z,100580
2023-01-11T03:50:05.686Z,100580
2023-01-11T03:55:03.308Z,100600
2023-01-11T04:00:01.812Z,100600
2023-01-11T04:05:02.005Z,100610
2023-01-11T04:10:00.691Z,100620
2023-01-11T04:15:00.577Z,100620
2023-01-11T04:20:00.582Z,100630
2023-01-11T04:25:00.529Z,100640
2023-01-11T04:30:00.677Z,100640
2023-01-11T04:35:00.478Z,100630
2023-01-11T04:40:00.548Z,100630
2023-01-11T04:45:00.524Z,100650
2023-01-11T04:50:00.654Z,100640
2023-01-11T04:55:00.481Z,100650
2023-01-11T05:00:01.184Z,100660
2023-01-11T05:05:00.518Z,100650
2023-01-11T05:10:01.068Z,100650
2023-01-11T05:15:00.553Z,100660
2023-01-11T05:20:00.525Z,100660
2023-01-11T05:25:00.586Z,100670
2023-01-11T05:30:00.549Z,100690
2023-01-11T05:35:00.533Z,100700
2023-01-11T05:40:00.543Z,100700
2023-01-11T05:45:00.513Z,100690
2023-01-11T05:50:00.569Z,100690
2023-01-11T05:55:00.507Z,100700
2023-01-11T06:00:02.550Z,100700
2023-01-11T06:05:00.967Z,100700
2023-01-11T06:10:00.560Z,100700
2023-01-11T06:15:00.561Z,100710
2023-01-11T06:20:00.522Z,100720
2023-01-11T06:25:00.553Z,100740
2023-01-11T06:30:00.600Z,100750
2023-01-11T06:35:00.512Z,100750
2023-01-11T06:40:00.600Z,100750
2023-01-11T06:45:00.563Z,100760
2023-01-11T06:50:00.541Z,100750
2023-01-11T06:55:00.521Z,100780
2023-01-11T07:00:01.374Z,100770
2023-01-11T07:05:00.581Z,100780
2023-01-11T07:10:00.575Z,100800
2023-01-11T07:15:01.184Z,100810
2023-01-11T07:20:01.105Z,100810
2023-01-11T07:25:00.998Z,100810
2023-01-11T07:30:00.829Z,100810
2023-01-11T07:35:00.524Z,100830
2023-01-11T07:40:00.562Z,100840
2023-01-11T07:45:00.682Z,100850
2023-01-11T07:50:00.708Z,100860
2023-01-11T07:55:00.604Z,100860
2023-01-11T08:00:02.328Z,100870
2023-01-11T08:05:02.983Z,100890
2023-01-11T08:10:00.634Z,100910
2023-01-11T08:15:00.549Z,100920
2023-01-11T08:20:00.671Z,100920
2023-01-11T08:25:00.607Z,100930
2023-01-11T08:30:00.562Z,100950
2023-01-11T08:35:00.528Z,100950
2023-01-11T08:40:00.685Z,100960
2023-01-11T08:45:00.503Z,100970
2023-01-11T10:18:33.348Z,101040
2023-01-11T10:20:15.235Z,101040
2023-01-11T10:25:12.792Z,101040
2023-01-11T10:30:07.421Z,101030
2023-01-11T10:35:13.056Z,101040
2023-01-11T10:40:07.577Z,101040
2023-01-11T10:45:05.805Z,101050
2023-01-11T10:50:12.434Z,101060
2023-01-11T10:55:11.848Z,101050
2023-01-11T11:00:18.052Z,101060
2023-01-11T11:05:09.858Z,101070
2023-01-11T11:10:11.544Z,101070
2023-01-11T11:15:17.303Z,101070
2023-01-11T11:20:19.446Z,101080
2023-01-11T11:25:06.561Z,101080
2023-01-11T11:30:00.539Z,101080
2023-01-11T11:35:00.814Z,101060
2023-01-11T11:40:01.064Z,101070
2023-01-11T11:45:12.267Z,101080
2023-01-11T11:50:27.379Z,101080
2023-01-11T11:55:06.416Z,101070
2023-01-11T12:00:07.021Z,101070
2023-01-11T12:05:06.960Z,101070
2023-01-11T12:10:07.802Z,101080
2023-01-11T12:15:11.482Z,101090
2023-01-11T12:20:00.651Z,101090
2023-01-11T12:25:02.599Z,101100
2023-01-11T12:30:12.765Z,101090
2023-01-11T12:35:17.485Z,101090
2023-01-11T12:40:15.471Z,101100
2023-01-11T12:45:13.870Z,101090
2023-01-11T12:50:08.183Z,101100
2023-01-11T12:55:11.476Z,101100
2023-01-11T13:00:08.994Z,101100
2023-01-11T13:05:13.307Z,101100
2023-01-11T13:10:20.419Z,101100
2023-01-11T13:15:03.767Z,101110
2023-01-11T13:20:11.575Z,101090
2023-01-11T13:25:03.473Z,101100
2023-01-11T13:30:01.741Z,101080
2023-01-11T13:35:06.072Z,101090
2023-01-11T13:40:17.096Z,101080
2023-01-11T13:45:05.697Z,101090
2023-01-11T13:50:10.490Z,101080
2023-01-11T13:55:24.848Z,101080
2023-01-11T14:00:08.841Z,101070
2023-01-11T14:05:11.114Z,101070
2023-01-11T14:10:11.478Z,101070
2023-01-11T14:15:15.460Z,101070
2023-01-11T14:20:00.565Z,101070
2023-01-11T14:25:07.950Z,101070
2023-01-11T14:30:19.436Z,101060
2023-01-11T14:35:13.743Z,101080
2023-01-11T14:40:13.744Z,101060
2023-01-11T14:45:11.972Z,101070
2023-01-11T14:50:13.851Z,101060
2023-01-11T14:55:04.571Z,101070
2023-01-11T15:00:03.439Z,101070
2023-01-11T15:05:03.935Z,101080
2023-01-11T15:10:03.234Z,101070
2023-01-11T15:15:12.628Z,101080
2023-01-11T15:20:15.084Z,101080
2023-01-11T15:25:03.801Z,101080
2023-01-11T15:30:01.987Z,101070
2023-01-11T15:35:20.465Z,101060
2023-01-11T15:40:04.795Z,101070
2023-01-11T15:45:10.452Z,101080
2023-01-11T15:50:11.471Z,101080
2023-01-11T15:55:16.426Z,101090
2023-01-11T16:00:10.591Z,101080
2023-01-11T16:05:10.460Z,101100
2023-01-11T16:10:12.339Z,101100
2023-01-11T16:15:17.256Z,101110
2023-01-11T16:20:20.408Z,101100
2023-01-11T16:25:01.000Z,101110
2023-01-11T16:30:00.993Z,101110
2023-01-11T16:35:02.529Z,101110
2023-01-11T16:40:09.116Z,101110
2023-01-11T16:45:05.698Z,101110
2023-01-11T16:50:13.732Z,101110
2023-01-11T16:55:02.746Z,101110
2023-01-11T17:00:05.514Z,101110
2023-01-11T17:05:00.530Z,101110
2023-01-11T17:10:14.373Z,101110
2023-01-11T17:15:20.526Z,101090
2023-01-11T17:20:00.681Z,101100
2023-01-11T17:25:04.456Z,101100
2023-01-11T17:30:03.030Z,101110
2023-01-11T17:35:04.059Z,101120
2023-01-11T17:40:01.423Z,101100
2023-01-11T17:45:09.094Z,101110
2023-01-11T17:50:02.152Z,101110
2023-01-11T17:55:12.067Z,101100
2023-01-11T18:00:20.532Z,101070
2023-01-11T18:05:00.831Z,101080
2023-01-11T18:10:03.263Z,101070
2023-01-11T18:15:04.441Z,101070
2023-01-11T18:20:13.246Z,101070
2023-01-11T18:25:11.192Z,101080
2023-01-11T18:30:04.755Z,101070
2023-01-11T18:35:00.544Z,101040
2023-01-11T18:40:00.673Z,101040
2023-01-11T18:45:00.701Z,101040
2023-01-11T18:50:00.573Z,101040
2023-01-11T18:55:00.617Z,101030
2023-01-11T19:00:03.050Z,101040
2023-01-11T19:05:00.538Z,101030
2023-01-11T19:10:00.585Z,101010
2023-01-11T19:15:00.525Z,101010
2023-01-11T19:20:00.631Z,100990
2023-01-11T19:25:00.596Z,100980
2023-01-11T19:30:00.567Z,100970
2023-01-11T19:35:00.492Z,100970
2023-01-11T19:40:00.545Z,100970
2023-01-11T19:45:00.528Z,100970
2023-01-11T19:50:00.532Z,100970
2023-01-11T19:55:00.570Z,100990
2023-01-11T20:00:03.316Z,100990
2023-01-11T20:05:00.577Z,100990
2023-01-11T20:10:00.722Z,100980
2023-01-11T20:15:00.537Z,100980
2023-01-11T20:20:00.545Z,100980
2023-01-11T20:25:00.679Z,100970
2023-01-11T20:30:00.635Z,100980
2023-01-11T20:35:00.559Z,100970
2023-01-11T20:40:00.546Z,100960
2023-01-11T20:45:00.515Z,100970
2023-01-11T20:50:00.545Z,100970
2023-01-11T20:55:00.613Z,100960
2023-01-11T21:00:03.876Z,100960
2023-01-11T21:05:00.741Z,100950
2023-01-11T21:10:00.547Z,100960
2023-01-11T21:15:00.541Z,100930
2023-01-11T21:20:00.533Z,100930
2023-01-11T21:25:00.510Z,100920
2023-01-11T21:30:00.626Z,100930
2023-01-11T21:35:00.505Z,100930
2023-01-11T21:40:00.556Z,100920
2023-01-11T21:45:00.533Z,100920
2023-01-11T21:50:00.635Z,100920
2023-01-11T21:55:00.555Z,100900
2023-01-11T22:00:03.450Z,100900
2023-01-11T22:05:00.545Z,100900
2023-01-11T22:10:04.966Z,100890
2023-01-11T22:15:00.537Z,100890
2023-01-11T22:20:00.511Z,100900
2023-01-11T22:25:00.674Z,100910
2023-01-11T22:30:00.653Z,100920
2023-01-11T22:35:00.690Z,100930
2023-01-11T22:40:01.656Z,100930
2023-01-11T22:45:00.580Z,100920
2023-01-11T22:50:00.520Z,100930
2023-01-11T22:55:00.951Z,100940
2023-01-11T23:00:00.877Z,100950
2023-01-11T23:05:00.634Z,100940
2023-01-11T23:10:00.542Z,100940
2023-01-11T23:15:00.548Z,100940
2023-01-11T23:20:00.495Z,100940
2023-01-11T23:25:00.523Z,100940
2023-01-11T23:30:00.590Z,100940
2023-01-11T23:35:00.833Z,100940
2023-01-11T23:40:00.519Z,100930
2023-01-11T23:45:00.528Z,100940
2023-01-11T23:50:00.569Z,100930
2023-01-11T23:55:00.506Z,100940
